sensor_id;sensor_type;location;lat;lon;timestamp;temperature;humidity
18773;DHT22;9515;50.810;4.418;2022-08-06T00:01:40;17.20;99.90
18773;DHT22;9515;50.810;4.418;2022-08-06T00:04:06;17.20;99.90
18773;DHT22;9515;50.810;4.418;2022-08-06T00:06:32;17.10;99.90
18773;DHT22;9515;50.810;4.418;2022-08-06T00:08:58;17.00;99.90
18773;DHT22;9515;50.810;4.418;2022-08-06T00:11:23;16.90;99.90
18773;DHT22;9515;50.810;4.418;2022-08-06T00:13:49;16.90;99.90
18773;DHT22;9515;50.810;4.418;2022-08-06T00:16:15;16.80;99.90
18773;DHT22;9515;50.810;4.418;2022-08-06T00:18:41;16.70;99.90
18773;DHT22;9515;50.810;4.418;2022-08-06T00:21:07;16.70;99.90
18773;DHT22;9515;50.810;4.418;2022-08-06T00:23:33;16.70;99.90
18773;DHT22;9515;50.810;4.418;2022-08-06T00:25:58;16.60;99.90
18773;DHT22;9515;50.810;4.418;2022-08-06T00:28:25;16.60;99.90
18773;DHT22;9515;50.810;4.418;2022-08-06T00:30:51;16.50;99.90
18773;DHT22;9515;50.810;4.418;2022-08-06T00:33:17;16.50;99.90
18773;DHT22;9515;50.810;4.418;2022-08-06T00:35:43;16.60;99.90
18773;DHT22;9515;50.810;4.418;2022-08-06T00:38:10;16.70;99.90
18773;DHT22;9515;50.810;4.418;2022-08-06T00:40:36;16.70;99.90
18773;DHT22;9515;50.810;4.418;2022-08-06T00:43:03;16.80;99.90
18773;DHT22;9515;50.810;4.418;2022-08-06T00:45:33;16.60;99.90
18773;DHT22;9515;50.810;4.418;2022-08-06T00:48:00;16.60;99.90
18773;DHT22;9515;50.810;4.418;2022-08-06T00:50:26;16.60;99.90
18773;DHT22;9515;50.810;4.418;2022-08-06T00:52:52;16.50;99.90
18773;DHT22;9515;50.810;4.418;2022-08-06T00:55:17;16.50;99.90
18773;DHT22;9515;50.810;4.418;2022-08-06T00:57:45;16.50;99.90
18773;DHT22;9515;50.810;4.418;2022-08-06T01:00:12;16.50;99.90
18773;DHT22;9515;50.810;4.418;2022-08-06T01:02:38;16.40;99.90
18773;DHT22;9515;50.810;4.418;2022-08-06T01:05:04;16.30;99.90
18773;DHT22;9515;50.810;4.418;2022-08-06T01:07:30;16.40;99.90
18773;DHT22;9515;50.810;4.418;2022-08-06T01:09:56;16.30;99.90
18773;DHT22;9515;50.810;4.418;2022-08-06T01:12:21;16.30;99.90
18773;DHT22;9515;50.810;4.418;2022-08-06T01:14:47;16.30;99.90
18773;DHT22;9515;50.810;4.418;2022-08-06T01:17:21;16.30;99.90
18773;DHT22;9515;50.810;4.418;2022-08-06T01:23:15;16.20;99.90
18773;DHT22;9515;50.810;4.418;2022-08-06T01:28:20;16.30;99.90
18773;DHT22;9515;50.810;4.418;2022-08-06T01:30:52;16.20;99.90
18773;DHT22;9515;50.810;4.418;2022-08-06T01:33:26;16.10;99.90
18773;DHT22;9515;50.810;4.418;2022-08-06T01:35:59;16.10;99.90
18773;DHT22;9515;50.810;4.418;2022-08-06T01:38:37;16.10;99.90
18773;DHT22;9515;50.810;4.418;2022-08-06T01:41:07;16.00;99.90
18773;DHT22;9515;50.810;4.418;2022-08-06T01:43:35;16.10;99.90
18773;DHT22;9515;50.810;4.418;2022-08-06T01:46:02;16.10;99.90
18773;DHT22;9515;50.810;4.418;2022-08-06T01:48:30;16.10;99.90
18773;DHT22;9515;50.810;4.418;2022-08-06T01:51:01;16.10;99.90
18773;DHT22;9515;50.810;4.418;2022-08-06T01:53:34;16.10;99.90
18773;DHT22;9515;50.810;4.418;2022-08-06T01:56:02;16.00;99.90
18773;DHT22;9515;50.810;4.418;2022-08-06T01:58:33;15.60;99.90
18773;DHT22;9515;50.810;4.418;2022-08-06T02:01:03;15.50;99.90
18773;DHT22;9515;50.810;4.418;2022-08-06T02:03:36;15.50;99.90
18773;DHT22;9515;50.810;4.418;2022-08-06T02:06:04;15.50;99.90
18773;DHT22;9515;50.810;4.418;2022-08-06T02:08:34;15.50;99.90
18773;DHT22;9515;50.810;4.418;2022-08-06T02:11:01;15.50;99.90
18773;DHT22;9515;50.810;4.418;2022-08-06T02:13:30;15.50;99.90
18773;DHT22;9515;50.810;4.418;2022-08-06T02:15:56;15.50;99.90
18773;DHT22;9515;50.810;4.418;2022-08-06T02:18:24;15.50;99.90
18773;DHT22;9515;50.810;4.418;2022-08-06T02:20:54;15.70;99.90
18773;DHT22;9515;50.810;4.418;2022-08-06T02:23:23;15.70;99.90
18773;DHT22;9515;50.810;4.418;2022-08-06T02:25:52;15.60;99.90
18773;DHT22;9515;50.810;4.418;2022-08-06T02:28:20;15.60;99.90
18773;DHT22;9515;50.810;4.418;2022-08-06T02:30:49;15.30;99.90
18773;DHT22;9515;50.810;4.418;2022-08-06T02:33:16;15.30;99.90
18773;DHT22;9515;50.810;4.418;2022-08-06T02:35:49;15.40;99.90
18773;DHT22;9515;50.810;4.418;2022-08-06T02:38:33;15.40;99.90
18773;DHT22;9515;50.810;4.418;2022-08-06T02:41:05;15.40;99.90
18773;DHT22;9515;50.810;4.418;2022-08-06T02:43:37;15.50;99.90
18773;DHT22;9515;50.810;4.418;2022-08-06T02:46:16;15.50;99.90
18773;DHT22;9515;50.810;4.418;2022-08-06T02:48:51;15.50;99.90
18773;DHT22;9515;50.810;4.418;2022-08-06T02:51:27;15.40;99.90
18773;DHT22;9515;50.810;4.418;2022-08-06T02:54:04;15.30;99.90
18773;DHT22;9515;50.810;4.418;2022-08-06T02:56:32;15.20;99.90
18773;DHT22;9515;50.810;4.418;2022-08-06T02:59:00;15.20;99.90
18773;DHT22;9515;50.810;4.418;2022-08-06T03:01:36;15.20;99.90
18773;DHT22;9515;50.810;4.418;2022-08-06T03:04:04;15.20;99.90
18773;DHT22;9515;50.810;4.418;2022-08-06T03:06:32;15.10;99.90
18773;DHT22;9515;50.810;4.418;2022-08-06T03:09:01;15.20;99.90
18773;DHT22;9515;50.810;4.418;2022-08-06T03:11:31;15.20;99.90
18773;DHT22;9515;50.810;4.418;2022-08-06T03:14:00;15.20;99.90
18773;DHT22;9515;50.810;4.418;2022-08-06T03:16:29;15.20;99.90
18773;DHT22;9515;50.810;4.418;2022-08-06T03:18:57;15.20;99.90
18773;DHT22;9515;50.810;4.418;2022-08-06T03:21:24;15.10;99.90
18773;DHT22;9515;50.810;4.418;2022-08-06T03:23:52;15.20;99.90
18773;DHT22;9515;50.810;4.418;2022-08-06T03:26:19;15.20;99.90
18773;DHT22;9515;50.810;4.418;2022-08-06T03:28:45;15.30;99.90
18773;DHT22;9515;50.810;4.418;2022-08-06T03:31:12;15.30;99.90
18773;DHT22;9515;50.810;4.418;2022-08-06T03:33:38;15.30;99.90
18773;DHT22;9515;50.810;4.418;2022-08-06T03:36:05;15.30;99.90
18773;DHT22;9515;50.810;4.418;2022-08-06T03:38:39;15.20;99.90
18773;DHT22;9515;50.810;4.418;2022-08-06T03:41:07;15.20;99.90
18773;DHT22;9515;50.810;4.418;2022-08-06T03:43:33;15.20;99.90
18773;DHT22;9515;50.810;4.418;2022-08-06T03:46:01;15.30;99.90
18773;DHT22;9515;50.810;4.418;2022-08-06T03:48:31;15.30;99.90
18773;DHT22;9515;50.810;4.418;2022-08-06T03:50:57;15.30;99.90
18773;DHT22;9515;50.810;4.418;2022-08-06T03:53:27;15.20;99.90
18773;DHT22;9515;50.810;4.418;2022-08-06T03:55:56;15.20;99.90
18773;DHT22;9515;50.810;4.418;2022-08-06T03:58:23;15.20;99.90
18773;DHT22;9515;50.810;4.418;2022-08-06T04:00:56;15.20;99.90
18773;DHT22;9515;50.810;4.418;2022-08-06T04:03:24;15.30;99.90
18773;DHT22;9515;50.810;4.418;2022-08-06T04:05:50;15.20;99.90
18773;DHT22;9515;50.810;4.418;2022-08-06T04:08:16;15.20;99.90
18773;DHT22;9515;50.810;4.418;2022-08-06T04:10:45;15.20;99.90
18773;DHT22;9515;50.810;4.418;2022-08-06T04:13:16;15.30;99.90
18773;DHT22;9515;50.810;4.418;2022-08-06T04:15:43;15.30;99.90
18773;DHT22;9515;50.810;4.418;2022-08-06T04:18:13;15.30;99.90
18773;DHT22;9515;50.810;4.418;2022-08-06T04:20:41;15.20;99.90
18773;DHT22;9515;50.810;4.418;2022-08-06T04:23:08;15.20;99.90
18773;DHT22;9515;50.810;4.418;2022-08-06T04:25:55;15.20;99.90
18773;DHT22;9515;50.810;4.418;2022-08-06T04:28:24;15.20;99.90
18773;DHT22;9515;50.810;4.418;2022-08-06T04:30:50;15.30;99.90
18773;DHT22;9515;50.810;4.418;2022-08-06T04:33:20;15.30;99.90
18773;DHT22;9515;50.810;4.418;2022-08-06T04:35:47;15.40;99.90
18773;DHT22;9515;50.810;4.418;2022-08-06T04:38:14;15.50;99.90
18773;DHT22;9515;50.810;4.418;2022-08-06T04:40:40;15.60;99.90
18773;DHT22;9515;50.810;4.418;2022-08-06T04:43:09;15.80;99.90
18773;DHT22;9515;50.810;4.418;2022-08-06T04:45:37;15.90;99.90
18773;DHT22;9515;50.810;4.418;2022-08-06T04:48:06;16.00;99.90
18773;DHT22;9515;50.810;4.418;2022-08-06T04:50:34;16.20;99.90
18773;DHT22;9515;50.810;4.418;2022-08-06T04:53:10;16.30;99.90
18773;DHT22;9515;50.810;4.418;2022-08-06T04:55:36;16.30;99.90
18773;DHT22;9515;50.810;4.418;2022-08-06T04:58:04;16.50;99.90
18773;DHT22;9515;50.810;4.418;2022-08-06T05:00:31;16.70;99.90
18773;DHT22;9515;50.810;4.418;2022-08-06T05:02:57;17.00;99.90
18773;DHT22;9515;50.810;4.418;2022-08-06T05:05:23;17.10;99.90
18773;DHT22;9515;50.810;4.418;2022-08-06T05:07:52;17.40;99.90
18773;DHT22;9515;50.810;4.418;2022-08-06T05:10:20;17.50;99.90
18773;DHT22;9515;50.810;4.418;2022-08-06T05:12:49;17.70;99.90
18773;DHT22;9515;50.810;4.418;2022-08-06T05:15:28;17.60;99.90
18773;DHT22;9515;50.810;4.418;2022-08-06T05:18:04;17.60;99.90
18773;DHT22;9515;50.810;4.418;2022-08-06T05:20:33;17.80;99.90
18773;DHT22;9515;50.810;4.418;2022-08-06T05:23:03;17.90;99.90
18773;DHT22;9515;50.810;4.418;2022-08-06T05:25:32;18.00;99.90
18773;DHT22;9515;50.810;4.418;2022-08-06T05:28:00;18.00;99.90
18773;DHT22;9515;50.810;4.418;2022-08-06T05:30:26;18.20;99.90
18773;DHT22;9515;50.810;4.418;2022-08-06T05:32:52;18.30;99.90
18773;DHT22;9515;50.810;4.418;2022-08-06T05:35:18;18.70;99.90
18773;DHT22;9515;50.810;4.418;2022-08-06T05:37:43;19.20;99.90
18773;DHT22;9515;50.810;4.418;2022-08-06T05:40:09;19.70;99.90
18773;DHT22;9515;50.810;4.418;2022-08-06T05:42:35;20.20;99.90
18773;DHT22;9515;50.810;4.418;2022-08-06T05:45:01;20.60;99.90
18773;DHT22;9515;50.810;4.418;2022-08-06T05:47:29;21.10;99.90
18773;DHT22;9515;50.810;4.418;2022-08-06T05:50:09;21.40;99.90
18773;DHT22;9515;50.810;4.418;2022-08-06T05:55:31;21.50;99.90
18773;DHT22;9515;50.810;4.418;2022-08-06T05:58:02;22.00;99.90
18773;DHT22;9515;50.810;4.418;2022-08-06T06:00:31;22.40;99.90
18773;DHT22;9515;50.810;4.418;2022-08-06T06:02:59;22.80;99.90
18773;DHT22;9515;50.810;4.418;2022-08-06T06:05:25;23.30;99.90
18773;DHT22;9515;50.810;4.418;2022-08-06T06:07:52;23.60;99.90
18773;DHT22;9515;50.810;4.418;2022-08-06T06:10:22;23.50;99.90
18773;DHT22;9515;50.810;4.418;2022-08-06T06:12:49;23.20;99.90
18773;DHT22;9515;50.810;4.418;2022-08-06T06:15:16;23.10;99.90
18773;DHT22;9515;50.810;4.418;2022-08-06T06:20:52;23.40;99.90
18773;DHT22;9515;50.810;4.418;2022-08-06T06:23:32;23.70;99.90
18773;DHT22;9515;50.810;4.418;2022-08-06T06:33:58;24.80;99.90
18773;DHT22;9515;50.810;4.418;2022-08-06T06:36:30;25.00;99.90
18773;DHT22;9515;50.810;4.418;2022-08-06T06:39:07;25.00;99.90
18773;DHT22;9515;50.810;4.418;2022-08-06T06:41:38;25.00;99.90
18773;DHT22;9515;50.810;4.418;2022-08-06T06:46:44;25.20;99.90
18773;DHT22;9515;50.810;4.418;2022-08-06T06:49:25;25.30;99.90
18773;DHT22;9515;50.810;4.418;2022-08-06T06:51:58;25.10;99.90
18773;DHT22;9515;50.810;4.418;2022-08-06T06:54:32;24.90;99.90
18773;DHT22;9515;50.810;4.418;2022-08-06T06:57:01;24.90;99.90
18773;DHT22;9515;50.810;4.418;2022-08-06T06:59:32;24.80;99.90
18773;DHT22;9515;50.810;4.418;2022-08-06T07:01:59;24.90;99.90
18773;DHT22;9515;50.810;4.418;2022-08-06T07:04:27;24.60;99.90
18773;DHT22;9515;50.810;4.418;2022-08-06T07:06:56;24.50;99.90
18773;DHT22;9515;50.810;4.418;2022-08-06T07:09:24;24.40;99.90
18773;DHT22;9515;50.810;4.418;2022-08-06T07:11:54;24.40;99.90
18773;DHT22;9515;50.810;4.418;2022-08-06T07:14:21;24.50;99.90
18773;DHT22;9515;50.810;4.418;2022-08-06T07:16:48;24.60;99.90
18773;DHT22;9515;50.810;4.418;2022-08-06T07:19:17;24.60;99.90
18773;DHT22;9515;50.810;4.418;2022-08-06T07:21:43;24.50;99.90
18773;DHT22;9515;50.810;4.418;2022-08-06T07:24:11;24.60;99.90
18773;DHT22;9515;50.810;4.418;2022-08-06T07:26:38;24.70;99.90
18773;DHT22;9515;50.810;4.418;2022-08-06T07:29:06;24.70;99.90
18773;DHT22;9515;50.810;4.418;2022-08-06T07:31:36;24.90;99.90
18773;DHT22;9515;50.810;4.418;2022-08-06T07:34:03;25.10;99.90
18773;DHT22;9515;50.810;4.418;2022-08-06T07:36:37;25.30;99.90
18773;DHT22;9515;50.810;4.418;2022-08-06T07:39:10;25.40;99.90
18773;DHT22;9515;50.810;4.418;2022-08-06T07:41:37;25.30;99.90
18773;DHT22;9515;50.810;4.418;2022-08-06T07:44:05;25.30;99.90
18773;DHT22;9515;50.810;4.418;2022-08-06T07:46:37;25.30;99.90
18773;DHT22;9515;50.810;4.418;2022-08-06T07:49:04;25.60;99.90
18773;DHT22;9515;50.810;4.418;2022-08-06T07:51:38;25.80;99.90
18773;DHT22;9515;50.810;4.418;2022-08-06T07:54:06;25.60;99.90
18773;DHT22;9515;50.810;4.418;2022-08-06T07:56:35;25.30;99.90
18773;DHT22;9515;50.810;4.418;2022-08-06T07:59:10;25.10;99.90
18773;DHT22;9515;50.810;4.418;2022-08-06T08:01:37;25.30;99.90
18773;DHT22;9515;50.810;4.418;2022-08-06T08:04:07;25.50;99.90
18773;DHT22;9515;50.810;4.418;2022-08-06T08:06:53;25.90;99.90
18773;DHT22;9515;50.810;4.418;2022-08-06T08:09:21;26.20;99.90
18773;DHT22;9515;50.810;4.418;2022-08-06T08:11:48;26.40;99.90
18773;DHT22;9515;50.810;4.418;2022-08-06T08:14:18;26.80;99.90
18773;DHT22;9515;50.810;4.418;2022-08-06T08:16:45;27.10;99.90
18773;DHT22;9515;50.810;4.418;2022-08-06T08:19:31;26.90;99.90
18773;DHT22;9515;50.810;4.418;2022-08-06T08:22:18;27.40;99.90
18773;DHT22;9515;50.810;4.418;2022-08-06T08:24:55;27.70;99.90
18773;DHT22;9515;50.810;4.418;2022-08-06T08:27:21;28.00;99.90
18773;DHT22;9515;50.810;4.418;2022-08-06T08:29:46;27.80;99.90
18773;DHT22;9515;50.810;4.418;2022-08-06T08:32:12;27.90;99.90
18773;DHT22;9515;50.810;4.418;2022-08-06T08:34:38;27.70;99.90
18773;DHT22;9515;50.810;4.418;2022-08-06T08:37:04;27.40;99.90
18773;DHT22;9515;50.810;4.418;2022-08-06T08:39:30;27.30;99.90
18773;DHT22;9515;50.810;4.418;2022-08-06T08:42:02;27.00;99.90
18773;DHT22;9515;50.810;4.418;2022-08-06T08:44:33;27.20;99.90
18773;DHT22;9515;50.810;4.418;2022-08-06T08:46:59;27.20;99.90
18773;DHT22;9515;50.810;4.418;2022-08-06T08:49:46;27.40;99.90
18773;DHT22;9515;50.810;4.418;2022-08-06T08:52:15;27.60;99.90
18773;DHT22;9515;50.810;4.418;2022-08-06T08:54:46;27.60;99.90
18773;DHT22;9515;50.810;4.418;2022-08-06T08:57:14;27.70;99.90
18773;DHT22;9515;50.810;4.418;2022-08-06T08:59:41;28.30;99.90
18773;DHT22;9515;50.810;4.418;2022-08-06T09:02:11;28.30;99.90
18773;DHT22;9515;50.810;4.418;2022-08-06T09:04:37;28.50;99.90
18773;DHT22;9515;50.810;4.418;2022-08-06T09:07:04;28.80;99.90
18773;DHT22;9515;50.810;4.418;2022-08-06T09:09:30;29.10;99.90
18773;DHT22;9515;50.810;4.418;2022-08-06T09:11:58;29.00;99.90
18773;DHT22;9515;50.810;4.418;2022-08-06T09:14:24;29.00;99.90
18773;DHT22;9515;50.810;4.418;2022-08-06T09:16:51;29.50;99.90
18773;DHT22;9515;50.810;4.418;2022-08-06T09:19:18;29.60;99.90
18773;DHT22;9515;50.810;4.418;2022-08-06T09:21:44;29.50;99.90
18773;DHT22;9515;50.810;4.418;2022-08-06T09:24:10;29.30;99.90
18773;DHT22;9515;50.810;4.418;2022-08-06T09:26:39;28.80;99.90
18773;DHT22;9515;50.810;4.418;2022-08-06T09:29:24;28.80;99.90
18773;DHT22;9515;50.810;4.418;2022-08-06T09:31:50;29.10;99.90
18773;DHT22;9515;50.810;4.418;2022-08-06T09:34:15;29.60;99.60
18773;DHT22;9515;50.810;4.418;2022-08-06T09:36:45;29.60;99.70
18773;DHT22;9515;50.810;4.418;2022-08-06T09:39:14;29.80;99.90
18773;DHT22;9515;50.810;4.418;2022-08-06T09:41:47;29.80;99.10
18773;DHT22;9515;50.810;4.418;2022-08-06T09:44:14;30.00;99.50
18773;DHT22;9515;50.810;4.418;2022-08-06T09:46:46;30.10;98.00
18773;DHT22;9515;50.810;4.418;2022-08-06T09:49:14;30.00;98.60
18773;DHT22;9515;50.810;4.418;2022-08-06T09:51:41;30.10;98.90
18773;DHT22;9515;50.810;4.418;2022-08-06T09:54:08;30.40;99.00
18773;DHT22;9515;50.810;4.418;2022-08-06T09:56:36;30.90;98.50
18773;DHT22;9515;50.810;4.418;2022-08-06T09:59:07;31.00;97.50
18773;DHT22;9515;50.810;4.418;2022-08-06T10:01:41;31.70;97.20
18773;DHT22;9515;50.810;4.418;2022-08-06T10:04:27;31.70;97.70
18773;DHT22;9515;50.810;4.418;2022-08-06T10:06:58;32.00;97.10
18773;DHT22;9515;50.810;4.418;2022-08-06T10:09:26;32.50;96.60
18773;DHT22;9515;50.810;4.418;2022-08-06T10:11:54;32.90;96.30
18773;DHT22;9515;50.810;4.418;2022-08-06T10:17:16;32.40;96.50
18773;DHT22;9515;50.810;4.418;2022-08-06T10:19:43;32.20;96.90
18773;DHT22;9515;50.810;4.418;2022-08-06T10:22:14;32.40;96.10
18773;DHT22;9515;50.810;4.418;2022-08-06T10:24:42;32.60;96.00
18773;DHT22;9515;50.810;4.418;2022-08-06T10:27:12;33.10;95.00
18773;DHT22;9515;50.810;4.418;2022-08-06T10:29:42;33.10;95.20
18773;DHT22;9515;50.810;4.418;2022-08-06T10:32:13;32.70;95.20
18773;DHT22;9515;50.810;4.418;2022-08-06T10:34:40;32.20;96.20
18773;DHT22;9515;50.810;4.418;2022-08-06T10:37:08;31.70;95.80
18773;DHT22;9515;50.810;4.418;2022-08-06T10:39:36;31.40;95.50
18773;DHT22;9515;50.810;4.418;2022-08-06T10:42:05;30.90;95.80
18773;DHT22;9515;50.810;4.418;2022-08-06T10:44:34;31.40;95.50
18773;DHT22;9515;50.810;4.418;2022-08-06T10:47:00;32.00;95.50
18773;DHT22;9515;50.810;4.418;2022-08-06T10:49:27;32.50;95.10
18773;DHT22;9515;50.810;4.418;2022-08-06T10:51:54;32.90;94.50
18773;DHT22;9515;50.810;4.418;2022-08-06T10:54:21;33.80;94.50
18773;DHT22;9515;50.810;4.418;2022-08-06T10:56:47;34.60;93.60
18773;DHT22;9515;50.810;4.418;2022-08-06T10:59:13;34.60;92.80
18773;DHT22;9515;50.810;4.418;2022-08-06T11:04:23;35.30;92.50
18773;DHT22;9515;50.810;4.418;2022-08-06T11:12:57;34.20;92.40
18773;DHT22;9515;50.810;4.418;2022-08-06T11:15:24;34.80;91.90
18773;DHT22;9515;50.810;4.418;2022-08-06T11:17:54;34.90;92.00
18773;DHT22;9515;50.810;4.418;2022-08-06T11:23:00;35.40;91.30
18773;DHT22;9515;50.810;4.418;2022-08-06T11:28:13;35.80;90.70
18773;DHT22;9515;50.810;4.418;2022-08-06T11:30:52;35.70;90.70
18773;DHT22;9515;50.810;4.418;2022-08-06T11:33:21;35.60;91.00
18773;DHT22;9515;50.810;4.418;2022-08-06T11:36:08;35.00;90.60
18773;DHT22;9515;50.810;4.418;2022-08-06T11:41:09;34.80;91.00
18773;DHT22;9515;50.810;4.418;2022-08-06T11:44:04;35.00;91.10
18773;DHT22;9515;50.810;4.418;2022-08-06T11:46:35;35.60;90.60
18773;DHT22;9515;50.810;4.418;2022-08-06T11:54:17;38.30;88.50
18773;DHT22;9515;50.810;4.418;2022-08-06T11:59:35;38.50;88.50
18773;DHT22;9515;50.810;4.418;2022-08-06T12:02:12;38.70;86.20
18773;DHT22;9515;50.810;4.418;2022-08-06T12:07:22;38.50;86.40
18773;DHT22;9515;50.810;4.418;2022-08-06T12:17:55;38.10;85.90
18773;DHT22;9515;50.810;4.418;2022-08-06T12:20:47;37.50;85.00
18773;DHT22;9515;50.810;4.418;2022-08-06T12:23:16;35.70;85.60
18773;DHT22;9515;50.810;4.418;2022-08-06T12:25:44;35.10;85.50
18773;DHT22;9515;50.810;4.418;2022-08-06T12:28:11;36.20;85.30
18773;DHT22;9515;50.810;4.418;2022-08-06T12:30:51;37.00;85.50
18773;DHT22;9515;50.810;4.418;2022-08-06T12:33:19;37.40;85.10
18773;DHT22;9515;50.810;4.418;2022-08-06T12:36:03;37.30;83.60
18773;DHT22;9515;50.810;4.418;2022-08-06T12:38:30;37.80;84.90
18773;DHT22;9515;50.810;4.418;2022-08-06T12:43:30;36.70;84.30
18773;DHT22;9515;50.810;4.418;2022-08-06T12:45:58;37.30;84.20
18773;DHT22;9515;50.810;4.418;2022-08-06T12:48:24;37.90;83.30
18773;DHT22;9515;50.810;4.418;2022-08-06T12:50:50;38.30;82.60
18773;DHT22;9515;50.810;4.418;2022-08-06T12:53:25;38.50;82.80
18773;DHT22;9515;50.810;4.418;2022-08-06T12:55:56;38.20;83.20
18773;DHT22;9515;50.810;4.418;2022-08-06T12:58:26;38.50;81.60
18773;DHT22;9515;50.810;4.418;2022-08-06T13:00:57;37.80;82.00
18773;DHT22;9515;50.810;4.418;2022-08-06T13:03:24;37.80;82.20
18773;DHT22;9515;50.810;4.418;2022-08-06T13:05:52;38.30;81.10
18773;DHT22;9515;50.810;4.418;2022-08-06T13:08:19;38.80;81.10
18773;DHT22;9515;50.810;4.418;2022-08-06T13:10:52;38.30;79.70
18773;DHT22;9515;50.810;4.418;2022-08-06T13:13:18;37.90;80.90
18773;DHT22;9515;50.810;4.418;2022-08-06T13:16:06;38.10;81.20
18773;DHT22;9515;50.810;4.418;2022-08-06T13:18:33;37.10;80.70
18773;DHT22;9515;50.810;4.418;2022-08-06T13:20:59;36.30;82.00
18773;DHT22;9515;50.810;4.418;2022-08-06T13:23:35;35.30;83.80
18773;DHT22;9515;50.810;4.418;2022-08-06T13:26:31;35.60;83.30
18773;DHT22;9515;50.810;4.418;2022-08-06T13:29:25;35.50;83.10
18773;DHT22;9515;50.810;4.418;2022-08-06T13:32:11;36.60;82.10
18773;DHT22;9515;50.810;4.418;2022-08-06T13:34:49;36.50;80.20
18773;DHT22;9515;50.810;4.418;2022-08-06T13:37:39;35.30;82.10
18773;DHT22;9515;50.810;4.418;2022-08-06T13:40:03;34.20;84.40
18773;DHT22;9515;50.810;4.418;2022-08-06T13:42:29;33.10;85.70
18773;DHT22;9515;50.810;4.418;2022-08-06T13:44:56;32.50;87.10
18773;DHT22;9515;50.810;4.418;2022-08-06T13:47:27;32.20;88.50
18773;DHT22;9515;50.810;4.418;2022-08-06T13:49:54;32.90;87.20
18773;DHT22;9515;50.810;4.418;2022-08-06T13:52:19;33.60;86.50
18773;DHT22;9515;50.810;4.418;2022-08-06T13:54:45;34.70;85.10
18773;DHT22;9515;50.810;4.418;2022-08-06T13:57:11;35.10;82.80
18773;DHT22;9515;50.810;4.418;2022-08-06T13:59:37;34.70;83.60
18773;DHT22;9515;50.810;4.418;2022-08-06T14:02:04;35.00;84.80
18773;DHT22;9515;50.810;4.418;2022-08-06T14:04:30;35.70;82.30
18773;DHT22;9515;50.810;4.418;2022-08-06T14:06:58;36.20;81.10
18773;DHT22;9515;50.810;4.418;2022-08-06T14:09:27;35.80;80.40
18773;DHT22;9515;50.810;4.418;2022-08-06T14:11:57;36.50;81.60
18773;DHT22;9515;50.810;4.418;2022-08-06T14:14:25;37.20;80.30
18773;DHT22;9515;50.810;4.418;2022-08-06T14:16:52;36.80;79.60
18773;DHT22;9515;50.810;4.418;2022-08-06T14:19:18;35.30;82.50
18773;DHT22;9515;50.810;4.418;2022-08-06T14:21:44;33.90;84.90
18773;DHT22;9515;50.810;4.418;2022-08-06T14:24:10;32.90;86.60
18773;DHT22;9515;50.810;4.418;2022-08-06T14:26:35;32.00;87.90
18773;DHT22;9515;50.810;4.418;2022-08-06T14:29:03;31.50;88.80
18773;DHT22;9515;50.810;4.418;2022-08-06T14:31:31;31.10;89.80
18773;DHT22;9515;50.810;4.418;2022-08-06T14:33:57;30.70;89.80
18773;DHT22;9515;50.810;4.418;2022-08-06T14:36:23;29.70;90.10
18773;DHT22;9515;50.810;4.418;2022-08-06T14:38:49;29.30;90.50
18773;DHT22;9515;50.810;4.418;2022-08-06T14:41:15;29.20;91.10
18773;DHT22;9515;50.810;4.418;2022-08-06T14:43:59;29.00;90.70
18773;DHT22;9515;50.810;4.418;2022-08-06T14:46:43;28.80;90.90
18773;DHT22;9515;50.810;4.418;2022-08-06T14:49:09;28.60;91.30
18773;DHT22;9515;50.810;4.418;2022-08-06T14:51:35;28.30;91.50
18773;DHT22;9515;50.810;4.418;2022-08-06T14:54:01;28.20;92.10
18773;DHT22;9515;50.810;4.418;2022-08-06T14:56:26;28.30;91.60
18773;DHT22;9515;50.810;4.418;2022-08-06T14:58:52;28.30;90.60
18773;DHT22;9515;50.810;4.418;2022-08-06T15:01:17;28.30;91.00
18773;DHT22;9515;50.810;4.418;2022-08-06T15:03:43;28.30;90.90
18773;DHT22;9515;50.810;4.418;2022-08-06T15:06:09;28.30;90.50
18773;DHT22;9515;50.810;4.418;2022-08-06T15:08:36;28.00;91.70
18773;DHT22;9515;50.810;4.418;2022-08-06T15:11:02;27.70;92.40
18773;DHT22;9515;50.810;4.418;2022-08-06T15:13:28;27.60;92.40
18773;DHT22;9515;50.810;4.418;2022-08-06T15:15:54;27.20;92.10
18773;DHT22;9515;50.810;4.418;2022-08-06T15:18:19;27.10;92.60
18773;DHT22;9515;50.810;4.418;2022-08-06T15:20:46;27.00;93.20
18773;DHT22;9515;50.810;4.418;2022-08-06T15:23:12;26.70;93.10
18773;DHT22;9515;50.810;4.418;2022-08-06T15:25:37;26.50;93.00
18773;DHT22;9515;50.810;4.418;2022-08-06T15:28:04;26.50;92.60
18773;DHT22;9515;50.810;4.418;2022-08-06T15:30:30;26.60;93.00
18773;DHT22;9515;50.810;4.418;2022-08-06T15:32:56;26.40;92.90
18773;DHT22;9515;50.810;4.418;2022-08-06T15:35:24;26.30;93.00
18773;DHT22;9515;50.810;4.418;2022-08-06T15:37:50;26.10;93.00
18773;DHT22;9515;50.810;4.418;2022-08-06T15:40:18;26.30;93.20
18773;DHT22;9515;50.810;4.418;2022-08-06T15:42:44;26.30;93.30
18773;DHT22;9515;50.810;4.418;2022-08-06T15:45:10;26.40;93.40
18773;DHT22;9515;50.810;4.418;2022-08-06T15:47:36;26.50;94.00
18773;DHT22;9515;50.810;4.418;2022-08-06T15:50:02;26.30;93.20
18773;DHT22;9515;50.810;4.418;2022-08-06T15:52:28;26.40;93.30
18773;DHT22;9515;50.810;4.418;2022-08-06T15:54:54;26.30;93.60
18773;DHT22;9515;50.810;4.418;2022-08-06T15:57:19;26.30;93.40
18773;DHT22;9515;50.810;4.418;2022-08-06T15:59:48;26.20;92.70
18773;DHT22;9515;50.810;4.418;2022-08-06T16:02:14;26.10;92.80
18773;DHT22;9515;50.810;4.418;2022-08-06T16:04:40;26.00;92.80
18773;DHT22;9515;50.810;4.418;2022-08-06T16:07:05;26.00;93.10
18773;DHT22;9515;50.810;4.418;2022-08-06T16:09:32;26.10;92.80
18773;DHT22;9515;50.810;4.418;2022-08-06T16:11:57;26.20;92.70
18773;DHT22;9515;50.810;4.418;2022-08-06T16:14:23;26.40;92.80
18773;DHT22;9515;50.810;4.418;2022-08-06T16:16:49;26.20;92.90
18773;DHT22;9515;50.810;4.418;2022-08-06T16:19:15;26.30;93.10
18773;DHT22;9515;50.810;4.418;2022-08-06T16:21:40;26.30;93.10
18773;DHT22;9515;50.810;4.418;2022-08-06T16:24:06;26.40;93.20
18773;DHT22;9515;50.810;4.418;2022-08-06T16:26:33;26.50;93.10
18773;DHT22;9515;50.810;4.418;2022-08-06T16:28:59;26.50;93.10
18773;DHT22;9515;50.810;4.418;2022-08-06T16:31:24;26.60;93.30
18773;DHT22;9515;50.810;4.418;2022-08-06T16:33:50;26.60;93.40
18773;DHT22;9515;50.810;4.418;2022-08-06T16:36:16;26.90;92.80
18773;DHT22;9515;50.810;4.418;2022-08-06T16:38:41;27.10;92.80
18773;DHT22;9515;50.810;4.418;2022-08-06T16:41:07;27.10;93.10
18773;DHT22;9515;50.810;4.418;2022-08-06T16:43:33;27.10;93.00
18773;DHT22;9515;50.810;4.418;2022-08-06T16:45:58;27.10;92.70
18773;DHT22;9515;50.810;4.418;2022-08-06T16:48:24;27.00;93.00
18773;DHT22;9515;50.810;4.418;2022-08-06T16:50:50;26.70;92.60
18773;DHT22;9515;50.810;4.418;2022-08-06T16:53:15;26.90;92.80
18773;DHT22;9515;50.810;4.418;2022-08-06T16:55:42;26.70;93.20
18773;DHT22;9515;50.810;4.418;2022-08-06T16:58:08;26.70;93.20
18773;DHT22;9515;50.810;4.418;2022-08-06T17:00:34;26.60;93.50